createdAt,value
2022-08-03T00:03:00.015Z,19.80
2022-08-03T00:06:05.222Z,19.83
2022-08-03T00:09:08.769Z,19.82
2022-08-03T00:12:11.801Z,19.86
2022-08-03T00:15:16.643Z,19.82
2022-08-03T00:18:20.368Z,19.85
2022-08-03T00:21:24.737Z,19.83
2022-08-03T00:24:27.776Z,19.85
2022-08-03T00:27:32.578Z,19.83
2022-08-03T00:30:36.278Z,19.80
2022-08-03T00:33:58.320Z,19.73
2022-08-03T00:37:03.542Z,19.73
2022-08-03T00:40:08.368Z,19.67
2022-08-03T00:43:11.608Z,19.65
2022-08-03T00:46:19.253Z,19.57
2022-08-03T00:49:25.293Z,19.57
2022-08-03T00:52:29.651Z,19.54
2022-08-03T00:55:32.834Z,19.53
2022-08-03T00:58:36.002Z,19.58
2022-08-03T01:01:40.534Z,19.62
2022-08-03T01:04:43.556Z,19.66
2022-08-03T01:08:04.253Z,19.73
2022-08-03T01:11:18.260Z,19.73
2022-08-03T01:14:29.081Z,19.77
2022-08-03T01:17:40.577Z,19.77
2022-08-03T01:20:49.494Z,19.77
2022-08-03T01:24:06.229Z,19.78
2022-08-03T01:27:14.145Z,19.74
2022-08-03T01:30:18.863Z,19.71
2022-08-03T01:33:30.929Z,19.78
2022-08-03T01:36:39.743Z,19.79
2022-08-03T01:39:44.197Z,19.79
2022-08-03T01:42:48.814Z,19.80
2022-08-03T01:45:55.481Z,19.78
2022-08-03T01:48:59.883Z,19.77
2022-08-03T01:52:05.562Z,19.79
2022-08-03T01:55:10.894Z,19.85
2022-08-03T01:58:16.447Z,19.94
2022-08-03T02:01:22.797Z,20.04
2022-08-03T02:04:28.833Z,20.00
2022-08-03T02:07:34.434Z,20.04
2022-08-03T02:10:39.204Z,20.06
2022-08-03T02:13:43.281Z,20.07
2022-08-03T02:16:50.225Z,20.10
2022-08-03T02:19:54.895Z,20.12
2022-08-03T02:22:58.212Z,20.14
2022-08-03T02:26:06.046Z,20.18
2022-08-03T02:29:39.401Z,20.15
2022-08-03T02:32:53.247Z,20.15
2022-08-03T02:35:58.440Z,20.16
2022-08-03T02:39:03.302Z,20.13
2022-08-03T02:42:09.973Z,20.15
2022-08-03T02:45:17.624Z,20.21
2022-08-03T02:48:26.485Z,20.23
2022-08-03T02:51:32.996Z,20.25
2022-08-03T02:54:37.786Z,20.20
2022-08-03T02:57:41.761Z,20.21
2022-08-03T03:00:46.123Z,20.22
2022-08-03T03:03:51.872Z,20.20
2022-08-03T03:06:56.747Z,20.20
2022-08-03T03:10:00.628Z,20.16
2022-08-03T03:13:04.930Z,20.15
2022-08-03T03:16:09.377Z,20.12
2022-08-03T03:19:17.973Z,20.05
2022-08-03T03:22:22.778Z,19.96
2022-08-03T03:25:26.047Z,19.94
2022-08-03T03:28:31.818Z,19.90
2022-08-03T03:31:36.266Z,19.83
2022-08-03T03:34:40.963Z,19.79
2022-08-03T03:37:47.521Z,19.76
2022-08-03T03:40:50.675Z,19.71
2022-08-03T03:43:53.768Z,19.71
2022-08-03T03:46:56.895Z,19.72
2022-08-03T03:50:03.040Z,19.76
2022-08-03T03:53:06.283Z,19.77
2022-08-03T03:56:12.417Z,19.80
2022-08-03T03:59:15.575Z,19.80
2022-08-03T04:02:18.716Z,19.78
2022-08-03T04:05:44.257Z,19.73
2022-08-03T04:09:06.527Z,19.72
2022-08-03T04:12:10.108Z,19.65
2022-08-03T04:15:14.568Z,19.60
2022-08-03T04:18:20.023Z,19.54
2022-08-03T04:21:25.274Z,19.53
2022-08-03T04:24:35.061Z,19.54
2022-08-03T04:27:41.660Z,19.57
2022-08-03T04:30:48.917Z,19.60
2022-08-03T04:33:53.991Z,19.60
2022-08-03T04:37:01.521Z,19.63
2022-08-03T04:40:10.636Z,19.65
2022-08-03T04:43:16.118Z,19.67
2022-08-03T04:46:21.514Z,19.73
2022-08-03T04:49:24.976Z,19.71
2022-08-03T04:52:30.187Z,19.78
2022-08-03T04:55:35.814Z,19.80
2022-08-03T04:58:39.045Z,19.84
2022-08-03T05:01:42.551Z,20.02
2022-08-03T05:04:46.586Z,20.18
2022-08-03T05:07:51.251Z,20.33
2022-08-03T05:10:54.443Z,20.27
2022-08-03T05:13:57.585Z,20.29
2022-08-03T05:17:00.563Z,20.34
2022-08-03T05:20:04.987Z,20.34
2022-08-03T05:23:09.407Z,20.47
2022-08-03T05:26:12.831Z,20.55
2022-08-03T05:29:16.209Z,20.60
2022-08-03T05:32:20.167Z,20.74
2022-08-03T05:36:01.459Z,20.86
2022-08-03T05:38:53.840Z,21.05
2022-08-03T05:41:56.800Z,21.03
2022-08-03T05:44:59.792Z,21.17
2022-08-03T05:48:02.772Z,21.35
2022-08-03T05:51:07.585Z,21.50
2022-08-03T05:54:11.954Z,21.63
2022-08-03T05:57:14.967Z,21.60
2022-08-03T06:00:19.182Z,21.68
2022-08-03T06:03:22.218Z,21.77
2022-08-03T06:06:28.290Z,21.97
2022-08-03T06:10:34.919Z,22.15
2022-08-03T06:12:59.236Z,22.25
2022-08-03T06:16:02.381Z,22.39
2022-08-03T06:19:05.547Z,22.55
2022-08-03T06:22:08.584Z,22.70
2022-08-03T06:25:13.098Z,22.81
2022-08-03T06:28:51.792Z,22.91
2022-08-03T06:31:41.276Z,23.06
2022-08-03T06:34:44.300Z,23.27
2022-08-03T06:37:49.692Z,23.49
2022-08-03T06:40:54.325Z,23.69
2022-08-03T06:44:03.507Z,23.91
2022-08-03T06:47:07.536Z,24.11
2022-08-03T06:50:12.688Z,24.30
2022-08-03T06:53:21.186Z,24.48
2022-08-03T06:56:26.089Z,24.46
2022-08-03T07:00:09.297Z,24.62
2022-08-03T07:02:57.666Z,24.86
2022-08-03T07:06:01.891Z,24.89
2022-08-03T07:09:07.085Z,25.09
2022-08-03T07:12:11.468Z,25.23
2022-08-03T07:15:20.595Z,25.39
2022-08-03T07:18:41.736Z,25.63
2022-08-03T07:21:45.874Z,25.82
2022-08-03T07:24:48.955Z,25.98
2022-08-03T07:27:53.728Z,26.11
2022-08-03T07:30:59.459Z,26.27
2022-08-03T07:34:02.641Z,26.40
2022-08-03T07:37:05.640Z,26.58
2022-08-03T07:40:10.485Z,26.77
2022-08-03T07:43:14.842Z,27.10
2022-08-03T07:46:17.886Z,27.25
2022-08-03T07:49:20.940Z,27.37
2022-08-03T07:52:41.502Z,27.43
2022-08-03T07:55:44.568Z,27.62
2022-08-03T07:58:49.100Z,27.88
2022-08-03T08:01:53.655Z,28.06
2022-08-03T08:04:56.743Z,28.19
2022-08-03T08:07:59.762Z,28.35
2022-08-03T08:11:02.791Z,28.55
2022-08-03T08:14:08.034Z,28.60
2022-08-03T08:17:11.115Z,28.74
2022-08-03T08:20:23.802Z,28.96
2022-08-03T08:23:41.643Z,29.07
2022-08-03T08:26:46.765Z,29.23
2022-08-03T08:29:55.193Z,29.30
2022-08-03T08:33:00.511Z,29.36
2022-08-03T08:36:03.874Z,29.48
2022-08-03T08:39:06.847Z,29.60
2022-08-03T08:42:11.335Z,29.62
2022-08-03T08:45:16.541Z,29.72
2022-08-03T08:48:24.455Z,29.81
2022-08-03T08:51:43.818Z,29.92
2022-08-03T08:55:00.661Z,30.11
2022-08-03T08:58:07.353Z,30.36
2022-08-03T09:01:11.772Z,30.47
2022-08-03T09:04:14.948Z,30.46
2022-08-03T09:07:20.323Z,30.76
2022-08-03T09:10:32.878Z,30.86
2022-08-03T09:13:36.521Z,30.83
2022-08-03T09:17:00.219Z,31.02
2022-08-03T09:20:09.544Z,31.08
2022-08-03T09:23:59.236Z,31.20
2022-08-03T09:26:38.208Z,31.39
2022-08-03T09:29:42.926Z,31.30
2022-08-03T09:32:48.854Z,31.33
2022-08-03T09:35:57.896Z,31.62
2022-08-03T09:39:05.801Z,31.79
2022-08-03T09:42:11.188Z,31.98
2022-08-03T09:45:27.801Z,31.98
2022-08-03T09:48:34.905Z,32.19
2022-08-03T09:52:33.873Z,32.00
2022-08-03T09:55:02.298Z,32.20
2022-08-03T09:58:09.387Z,32.31
2022-08-03T10:01:24.008Z,32.33
2022-08-03T10:04:29.571Z,32.49
2022-08-03T10:07:46.171Z,32.58
2022-08-03T10:10:53.899Z,32.62
2022-08-03T10:14:01.282Z,32.63
2022-08-03T10:17:05.290Z,32.29
2022-08-03T10:20:11.783Z,32.66
2022-08-03T10:23:17.911Z,32.82
2022-08-03T10:26:25.042Z,33.03
2022-08-03T10:29:30.767Z,32.81
2022-08-03T10:32:40.199Z,33.03
2022-08-03T10:35:49.159Z,33.35
2022-08-03T10:38:53.688Z,33.49
2022-08-03T10:42:02.388Z,33.54
2022-08-03T10:45:10.823Z,33.51
2022-08-03T10:48:14.559Z,33.55
2022-08-03T10:51:20.320Z,33.68
2022-08-03T10:55:03.279Z,33.96
2022-08-03T10:58:11.013Z,33.98
2022-08-03T11:01:15.112Z,34.31
2022-08-03T11:04:21.485Z,34.74
2022-08-03T11:07:26.700Z,34.93
2022-08-03T11:10:31.982Z,35.24
2022-08-03T11:13:35.075Z,35.20
2022-08-03T11:16:41.809Z,35.31
2022-08-03T11:19:57.596Z,35.57
2022-08-03T11:23:02.983Z,35.48
2022-08-03T11:26:17.299Z,35.22
2022-08-03T11:29:30.127Z,35.46
2022-08-03T11:32:58.702Z,35.14
2022-08-03T11:36:03.249Z,35.45
2022-08-03T11:39:17.280Z,35.50
2022-08-03T11:42:44.012Z,35.08
2022-08-03T11:45:59.635Z,35.63
2022-08-03T11:49:10.960Z,35.65
2022-08-03T11:52:14.528Z,36.06
2022-08-03T11:55:22.039Z,35.50
2022-08-03T11:59:10.748Z,35.35
2022-08-03T12:01:48.572Z,36.03
2022-08-03T12:04:52.248Z,36.41
2022-08-03T12:08:04.422Z,36.44
2022-08-03T12:11:12.427Z,36.62
2022-08-03T12:14:50.502Z,36.49
2022-08-03T12:17:42.162Z,36.31
2022-08-03T12:20:46.352Z,36.71
2022-08-03T12:23:49.549Z,37.08
2022-08-03T12:26:59.023Z,36.66
2022-08-03T12:30:04.930Z,36.76
2022-08-03T12:33:24.047Z,36.88
2022-08-03T12:36:29.352Z,37.12
2022-08-03T12:39:33.697Z,36.91
2022-08-03T12:42:40.151Z,37.01
2022-08-03T12:45:43.285Z,37.04
2022-08-03T12:49:09.520Z,37.21
2022-08-03T12:52:12.688Z,37.44
2022-08-03T12:55:21.588Z,37.87
2022-08-03T12:58:34.802Z,37.86
2022-08-03T13:01:38.689Z,37.86
2022-08-03T13:04:59.376Z,37.80
2022-08-03T13:08:02.363Z,37.54
2022-08-03T13:11:23.739Z,37.42
2022-08-03T13:14:50.822Z,37.38
2022-08-03T13:17:54.426Z,37.74
2022-08-03T13:20:57.937Z,38.02
2022-08-03T13:24:01.216Z,38.35
2022-08-03T13:27:59.450Z,38.78
2022-08-03T13:30:31.223Z,39.01
2022-08-03T13:33:34.683Z,38.71
2022-08-03T13:37:06.398Z,38.76
2022-08-03T13:40:02.486Z,39.11
2022-08-03T13:43:06.360Z,39.35
2022-08-03T13:46:10.915Z,39.24
2022-08-03T13:49:14.052Z,38.72
2022-08-03T13:52:17.468Z,39.26
2022-08-03T13:55:20.776Z,39.19
2022-08-03T13:58:24.120Z,39.35
2022-08-03T14:01:54.259Z,39.13
2022-08-03T14:04:51.754Z,38.19
2022-08-03T14:07:56.861Z,39.00
2022-08-03T14:11:07.518Z,38.28
2022-08-03T14:14:10.909Z,38.13
2022-08-03T14:17:16.443Z,38.65
2022-08-03T14:20:36.844Z,39.31
2022-08-03T14:23:42.071Z,39.90
2022-08-03T14:26:45.043Z,40.22
2022-08-03T14:29:48.063Z,40.28
2022-08-03T14:32:52.409Z,40.23
2022-08-03T14:35:55.906Z,40.47
2022-08-03T14:39:01.373Z,40.61
2022-08-03T14:42:05.921Z,40.42
2022-08-03T14:45:19.895Z,39.60
2022-08-03T14:50:30.827Z,40.26
2022-08-03T14:51:51.359Z,40.39
2022-08-03T14:54:57.202Z,40.37
2022-08-03T14:58:02.916Z,40.28
2022-08-03T15:02:05.481Z,40.38
2022-08-03T15:04:31.716Z,40.35
2022-08-03T15:07:34.731Z,40.14
2022-08-03T15:10:44.369Z,40.32
2022-08-03T15:13:48.670Z,39.52
2022-08-03T15:16:51.700Z,39.04
2022-08-03T15:20:03.240Z,39.24
2022-08-03T15:23:20.390Z,39.56
2022-08-03T15:26:30.723Z,39.14
2022-08-03T15:30:05.573Z,39.34
2022-08-03T15:33:00.186Z,39.47
2022-08-03T15:36:05.438Z,39.18
2022-08-03T15:39:08.561Z,38.80
2022-08-03T15:42:11.759Z,38.75
2022-08-03T15:45:14.755Z,39.09
2022-08-03T15:48:26.499Z,39.24
2022-08-03T15:51:31.000Z,39.31
2022-08-03T15:54:33.986Z,39.56
2022-08-03T15:59:04.635Z,39.32
2022-08-03T16:01:02.818Z,38.09
2022-08-03T16:04:06.214Z,37.60
2022-08-03T16:07:12.564Z,38.62
2022-08-03T16:10:17.951Z,39.18
2022-08-03T16:13:20.958Z,39.10
2022-08-03T16:16:24.287Z,38.58
2022-08-03T16:19:28.089Z,38.51
2022-08-03T16:22:32.496Z,37.95
2022-08-03T16:25:36.106Z,37.46
2022-08-03T16:28:39.343Z,37.12
2022-08-03T16:31:50.908Z,37.22
2022-08-03T16:34:54.642Z,37.00
2022-08-03T16:37:59.852Z,36.73
2022-08-03T16:41:05.056Z,36.66
2022-08-03T16:44:10.034Z,36.49
2022-08-03T16:47:21.771Z,36.03
2022-08-03T16:50:25.942Z,35.97
2022-08-03T16:53:33.768Z,35.71
2022-08-03T16:56:53.377Z,35.63
2022-08-03T16:59:56.580Z,35.52
2022-08-03T17:03:04.117Z,35.25
2022-08-03T17:06:09.296Z,34.99
2022-08-03T17:09:18.213Z,34.68
2022-08-03T17:12:21.766Z,34.64
2022-08-03T17:15:38.089Z,34.34
2022-08-03T17:18:54.038Z,34.23
2022-08-03T17:22:04.521Z,34.06
2022-08-03T17:25:10.776Z,33.98
2022-08-03T17:28:51.103Z,33.42
2022-08-03T17:31:54.308Z,33.24
2022-08-03T17:34:57.537Z,32.91
2022-08-03T17:38:03.793Z,32.56
2022-08-03T17:41:10.549Z,32.17
2022-08-03T17:44:29.531Z,32.05
2022-08-03T17:47:42.073Z,32.06
2022-08-03T17:50:54.213Z,31.89
2022-08-03T17:54:06.187Z,31.84
2022-08-03T17:57:30.380Z,31.65
2022-08-03T18:01:59.275Z,31.62
2022-08-03T18:04:43.600Z,31.44
2022-08-03T18:08:01.716Z,31.24
2022-08-03T18:11:14.660Z,31.14
2022-08-03T18:14:33.174Z,30.94
2022-08-03T18:17:55.669Z,30.88
2022-08-03T18:21:09.392Z,30.75
2022-08-03T18:24:20.984Z,30.60
2022-08-03T18:27:42.873Z,30.46
2022-08-03T18:30:53.583Z,30.27
2022-08-03T18:34:16.797Z,30.11
2022-08-03T18:37:26.062Z,29.91
2022-08-03T18:40:30.043Z,29.77
2022-08-03T18:43:46.629Z,29.60
2022-08-03T18:47:17.717Z,29.37
2022-08-03T18:50:28.025Z,29.28
2022-08-03T18:54:02.451Z,29.19
2022-08-03T18:57:09.134Z,28.98
2022-08-03T19:00:15.893Z,28.86
2022-08-03T19:03:42.779Z,28.76
2022-08-03T19:06:52.336Z,28.60
2022-08-03T19:10:03.491Z,28.52
2022-08-03T19:13:14.158Z,28.40
2022-08-03T19:16:24.456Z,28.26
2022-08-03T19:19:43.322Z,28.15
2022-08-03T19:22:48.874Z,28.05
2022-08-03T19:25:52.343Z,27.86
2022-08-03T19:28:58.695Z,27.70
2022-08-03T19:32:03.011Z,27.64
2022-08-03T19:35:10.103Z,27.51
2022-08-03T19:38:27.466Z,27.44
2022-08-03T19:41:42.019Z,27.35
2022-08-03T19:44:52.830Z,27.27
2022-08-03T19:48:09.720Z,27.28
2022-08-03T19:51:14.608Z,27.14
2022-08-03T19:54:18.589Z,26.97
2022-08-03T19:57:34.957Z,26.87
2022-08-03T20:00:40.844Z,26.73
2022-08-03T20:03:53.260Z,26.61
2022-08-03T20:06:59.200Z,26.58
2022-08-03T20:10:05.908Z,26.52
2022-08-03T20:13:09.585Z,26.40
2022-08-03T20:16:12.927Z,26.43
2022-08-03T20:19:19.210Z,26.34
2022-08-03T20:22:31.198Z,26.19
2022-08-03T20:25:55.706Z,26.15
2022-08-03T20:29:09.249Z,26.03
2022-08-03T20:32:13.912Z,25.91
2022-08-03T20:35:17.218Z,25.89
2022-08-03T20:38:27.271Z,25.86
2022-08-03T20:41:30.626Z,25.78
2022-08-03T20:44:34.795Z,25.71
2022-08-03T20:47:50.979Z,25.63
2022-08-03T20:50:55.378Z,25.58
2022-08-03T20:54:03.038Z,25.52
2022-08-03T20:57:10.168Z,25.44
2022-08-03T21:00:17.611Z,25.41
2022-08-03T21:03:20.662Z,25.37
2022-08-03T21:06:27.743Z,25.29
2022-08-03T21:09:44.121Z,25.26
2022-08-03T21:13:13.011Z,25.10
2022-08-03T21:16:19.932Z,24.96
2022-08-03T21:19:24.783Z,24.86
2022-08-03T21:22:32.962Z,24.83
2022-08-03T21:25:40.301Z,24.81
2022-08-03T21:28:43.700Z,24.87
2022-08-03T21:31:47.598Z,24.81
2022-08-03T21:34:52.576Z,24.79
2022-08-03T21:38:10.242Z,24.67
2022-08-03T21:41:14.941Z,24.58
2022-08-03T21:44:25.282Z,24.57
2022-08-03T21:47:37.569Z,24.53
2022-08-03T21:50:43.259Z,24.43
2022-08-03T21:54:02.458Z,24.35
2022-08-03T21:57:19.917Z,24.33
2022-08-03T22:00:24.139Z,24.27
2022-08-03T22:03:27.529Z,24.26
2022-08-03T22:06:31.402Z,24.21
2022-08-03T22:09:35.331Z,24.15
2022-08-03T22:12:40.060Z,24.12
2022-08-03T22:15:43.224Z,24.06
2022-08-03T22:18:47.474Z,24.08
2022-08-03T22:21:51.412Z,24.03
2022-08-03T22:24:59.948Z,23.98
2022-08-03T22:28:07.816Z,23.92
2022-08-03T22:31:57.674Z,23.90
2022-08-03T22:34:35.438Z,23.88
2022-08-03T22:37:40.991Z,23.81
2022-08-03T22:40:45.379Z,23.77
2022-08-03T22:43:50.469Z,23.75
2022-08-03T22:46:53.632Z,23.72
2022-08-03T22:50:33.491Z,23.67
2022-08-03T22:53:23.194Z,23.54
2022-08-03T22:56:26.499Z,23.57
2022-08-03T22:59:41.127Z,23.52
2022-08-03T23:02:48.403Z,23.55
2022-08-03T23:06:01.276Z,23.51
2022-08-03T23:09:08.805Z,23.47
2022-08-03T23:12:16.568Z,23.39
2022-08-03T23:15:21.712Z,23.37
2022-08-03T23:18:26.567Z,23.33
2022-08-03T23:21:52.955Z,23.31
2022-08-03T23:24:54.333Z,23.30
2022-08-03T23:28:05.307Z,23.28
2022-08-03T23:31:10.861Z,23.20
2022-08-03T23:34:33.842Z,23.18
2022-08-03T23:38:04.333Z,23.11
2022-08-03T23:41:05.310Z,23.06
2022-08-03T23:44:11.680Z,23.02
2022-08-03T23:47:16.450Z,22.95
2022-08-03T23:50:20.184Z,22.95
2022-08-03T23:53:31.229Z,22.91
2022-08-03T23:56:51.763Z,22.93
